createdAt,value
2024-04-08T13:26:33.306Z,9.20
2024-04-08T13:29:01.508Z,5.93
2024-04-08T13:31:28.368Z,3.20
2024-04-08T13:33:56.517Z,7.00
2024-04-08T13:36:23.494Z,6.93
2024-04-08T13:38:50.639Z,6.83
2024-04-08T13:41:17.650Z,8.57
2024-04-08T13:43:45.733Z,5.97
2024-04-08T13:46:13.065Z,5.77
2024-04-08T13:48:40.007Z,6.47
2024-04-08T13:51:06.936Z,10.40
2024-04-08T13:53:33.788Z,6.47
2024-04-08T13:56:01.720Z,7.57
2024-04-08T13:58:29.046Z,12.30
2024-04-08T14:00:56.324Z,12.67
2024-04-08T14:03:26.548Z,7.67
2024-04-08T14:05:53.528Z,9.27
2024-04-08T14:08:20.417Z,8.07
2024-04-08T14:10:47.445Z,8.00
2024-04-08T14:13:14.814Z,9.55
2024-04-08T14:15:42.579Z,11.50
2024-04-08T14:18:10.327Z,10.93
2024-04-08T14:20:37.568Z,8.17
2024-04-08T14:23:05.927Z,6.17
2024-04-08T14:25:35.772Z,7.53
2024-04-08T14:28:03.394Z,9.67
2024-04-08T14:30:30.594Z,5.37
2024-04-08T14:32:57.846Z,7.50
2024-04-08T14:35:25.230Z,9.53
2024-04-08T14:38:13.908Z,7.17
2024-04-08T14:40:40.127Z,9.30
2024-04-08T14:43:12.837Z,11.53
2024-04-08T14:45:45.555Z,12.03
2024-04-08T14:48:13.754Z,7.77
2024-04-08T14:50:40.665Z,8.80
2024-04-08T14:53:08.290Z,10.07
2024-04-08T14:55:39.376Z,6.67
2024-04-08T14:58:17.026Z,10.03
2024-04-08T15:00:50.968Z,8.20
2024-04-08T15:03:27.224Z,10.57
2024-04-08T15:06:00.885Z,13.47
2024-04-08T15:08:32.531Z,7.97
2024-04-08T15:11:04.496Z,8.80
2024-04-08T15:13:32.071Z,5.37
2024-04-08T15:15:58.912Z,8.13
2024-04-08T15:18:26.756Z,5.60
2024-04-08T15:20:54.052Z,9.63
2024-04-08T15:23:21.466Z,11.40
2024-04-08T15:25:48.526Z,9.37
2024-04-08T15:28:15.422Z,6.93
2024-04-08T15:30:43.047Z,9.27
2024-04-08T15:33:10.378Z,8.33
2024-04-08T15:35:37.374Z,9.33
2024-04-08T15:38:04.421Z,6.93
2024-04-08T15:40:31.468Z,12.40
2024-04-08T15:42:58.285Z,7.33
2024-04-08T15:45:25.270Z,8.20
2024-04-08T15:47:52.380Z,15.43
2024-04-08T15:50:19.869Z,9.30
2024-04-08T15:52:46.691Z,10.20
2024-04-08T15:55:13.771Z,8.77
2024-04-08T15:57:40.632Z,7.70
2024-04-08T16:00:10.655Z,12.97
2024-04-08T16:02:38.190Z,8.80
2024-04-08T16:05:05.577Z,9.23
2024-04-08T16:07:32.588Z,8.53
2024-04-08T16:09:59.441Z,10.93
2024-04-08T16:12:29.787Z,11.43
2024-04-08T16:14:57.697Z,12.03
2024-04-08T16:17:24.516Z,10.53
2024-04-08T16:19:51.513Z,9.87
2024-04-08T16:22:19.341Z,14.13
2024-04-08T16:24:47.917Z,10.77
2024-04-08T16:27:15.008Z,11.47
2024-04-08T16:29:42.067Z,9.60
2024-04-08T16:32:09.042Z,15.30
2024-04-08T16:34:36.382Z,10.57
2024-04-08T16:37:04.314Z,11.33
2024-04-08T16:39:31.335Z,16.23
2024-04-08T16:41:58.367Z,6.80
2024-04-08T16:44:25.213Z,10.87
2024-04-08T16:46:52.325Z,15.60
2024-04-08T16:49:19.793Z,14.00
2024-04-08T16:51:47.437Z,14.57
2024-04-08T16:54:14.312Z,14.20
2024-04-08T16:56:41.170Z,14.43
2024-04-08T16:59:08.058Z,12.53
2024-04-08T17:01:35.108Z,20.77
2024-04-08T17:04:04.970Z,17.80
2024-04-08T17:06:39.370Z,10.57
2024-04-08T17:09:06.356Z,27.93
2024-04-08T17:11:33.592Z,12.20
2024-04-08T17:14:00.456Z,13.60
2024-04-08T17:16:28.011Z,16.33
2024-04-08T17:18:54.992Z,20.00
2024-04-08T17:21:22.055Z,12.67
2024-04-08T17:23:49.243Z,18.60
2024-04-08T17:26:16.122Z,20.97
2024-04-08T17:28:42.948Z,14.40
2024-04-08T17:31:09.998Z,13.67
2024-04-08T17:33:38.224Z,15.40
2024-04-08T17:36:06.812Z,17.30
2024-04-08T17:38:43.866Z,13.13
2024-04-08T17:41:13.281Z,17.90
2024-04-08T17:43:41.949Z,15.97
2024-04-08T17:46:09.372Z,15.60
2024-04-08T17:48:37.765Z,14.30
2024-04-08T17:51:07.083Z,20.00
2024-04-08T17:53:37.879Z,13.93
2024-04-08T17:56:12.535Z,15.33
2024-04-08T17:58:39.651Z,14.00
2024-04-08T18:01:10.060Z,14.60
2024-04-08T18:03:37.732Z,20.30
2024-04-08T18:06:11.799Z,13.53
2024-04-08T18:08:43.435Z,13.50
2024-04-08T18:11:12.706Z,17.80
2024-04-08T18:13:40.589Z,19.07
2024-04-08T18:16:13.868Z,12.03
2024-04-08T18:18:52.832Z,14.17
2024-04-08T18:21:21.259Z,21.43
2024-04-08T18:23:49.902Z,16.13
2024-04-08T18:26:19.484Z,16.47
2024-04-08T18:28:54.270Z,13.67
2024-04-08T18:31:21.646Z,18.27
2024-04-08T18:33:50.741Z,20.30
2024-04-08T18:36:18.395Z,16.97
2024-04-08T18:38:45.748Z,15.20
2024-04-08T18:41:15.329Z,13.57
2024-04-08T18:43:43.660Z,14.53
2024-04-08T18:46:24.870Z,16.13
2024-04-08T18:48:52.779Z,18.07
2024-04-08T18:51:20.415Z,17.27
2024-04-08T18:53:50.344Z,14.57
2024-04-08T18:56:18.798Z,20.67
2024-04-08T18:58:46.215Z,21.17
2024-04-08T19:01:21.859Z,17.67
2024-04-08T19:03:50.697Z,21.53
2024-04-08T19:06:17.844Z,17.63
2024-04-08T19:08:44.822Z,15.93
2024-04-08T19:11:11.835Z,17.53
2024-04-08T19:13:38.707Z,14.00
2024-04-08T19:16:05.922Z,18.13
2024-04-08T19:18:34.692Z,14.33
2024-04-08T19:21:09.088Z,18.47
2024-04-08T19:23:37.543Z,12.63
2024-04-08T19:26:04.928Z,17.50
2024-04-08T19:28:32.058Z,19.60
2024-04-08T19:30:58.862Z,16.70
2024-04-08T19:33:26.190Z,17.23
2024-04-08T19:35:55.157Z,17.27
2024-04-08T19:38:23.153Z,17.87
2024-04-08T19:41:03.673Z,20.53
2024-04-08T19:43:30.596Z,10.63
2024-04-08T19:46:06.367Z,24.30
2024-04-08T19:48:40.061Z,17.20
2024-04-08T19:51:16.634Z,15.53
2024-04-08T19:53:46.758Z,19.27
2024-04-08T19:56:15.619Z,12.23
2024-04-08T19:58:43.076Z,15.67
2024-04-08T20:01:10.836Z,13.30
2024-04-08T20:03:38.749Z,17.13
2024-04-08T20:06:06.300Z,21.93
2024-04-08T20:08:37.279Z,16.17
2024-04-08T20:11:08.206Z,22.43
2024-04-08T20:13:35.144Z,15.23
2024-04-08T20:16:16.347Z,18.13
2024-04-08T20:18:44.469Z,17.23
2024-04-08T20:21:14.171Z,18.93
2024-04-08T20:23:41.713Z,14.63
2024-04-08T20:26:08.878Z,22.50
2024-04-08T20:28:35.908Z,20.13
2024-04-08T20:31:06.488Z,12.87
2024-04-08T20:33:33.633Z,16.93
2024-04-08T20:36:06.552Z,14.60
2024-04-08T20:38:34.488Z,16.73
2024-04-08T20:41:02.387Z,17.10
2024-04-08T20:43:30.876Z,19.13
2024-04-08T20:45:57.829Z,20.67
2024-04-08T20:48:24.980Z,16.23
2024-04-08T20:50:58.997Z,18.43
2024-04-08T20:53:26.894Z,13.90
2024-04-08T20:56:05.358Z,11.80
2024-04-08T20:58:33.567Z,21.07
2024-04-08T21:01:11.316Z,21.43
2024-04-08T21:03:39.728Z,15.37
2024-04-08T21:06:09.484Z,19.07
2024-04-08T21:08:39.390Z,20.43
2024-04-08T21:11:08.496Z,19.90
2024-04-08T21:13:36.681Z,19.53
2024-04-08T21:16:07.255Z,19.70
2024-04-08T21:18:35.733Z,19.60
2024-04-08T21:21:06.951Z,23.03
2024-04-08T21:23:35.672Z,15.67
2024-04-08T21:26:06.801Z,20.03
2024-04-08T21:28:33.687Z,20.17
2024-04-08T21:31:00.581Z,16.47
2024-04-08T21:33:27.611Z,18.80
2024-04-08T21:35:58.936Z,23.03
2024-04-08T21:38:26.810Z,16.43
2024-04-08T21:41:15.832Z,21.83
2024-04-08T21:43:45.408Z,28.10
2024-04-08T21:46:13.655Z,23.17
2024-04-08T21:48:42.058Z,18.57
2024-04-08T21:51:15.171Z,20.07
2024-04-08T21:53:42.128Z,25.13
2024-04-08T21:56:09.005Z,23.50
2024-04-08T21:58:37.061Z,17.73
2024-04-08T22:01:09.482Z,32.53
2024-04-08T22:03:37.582Z,27.17
2024-04-08T22:06:06.826Z,27.30
2024-04-08T22:08:33.873Z,25.73
2024-04-08T22:11:00.806Z,22.87
2024-04-08T22:13:27.994Z,23.93
2024-04-08T22:15:54.966Z,20.80
2024-04-08T22:18:24.613Z,26.67
2024-04-08T22:20:52.960Z,25.27
2024-04-08T22:23:20.152Z,25.33
2024-04-08T22:25:47.329Z,20.33
2024-04-08T22:28:14.202Z,15.17
2024-04-08T22:30:41.440Z,25.37
2024-04-08T22:33:08.589Z,19.97
2024-04-08T22:35:35.612Z,30.90
2024-04-08T22:38:02.453Z,20.30
2024-04-08T22:40:29.333Z,23.53
2024-04-08T22:42:56.153Z,26.50
2024-04-08T22:45:23.195Z,28.03
2024-04-08T22:47:50.322Z,20.57
2024-04-08T22:50:18.243Z,21.67
2024-04-08T22:52:45.286Z,25.07
2024-04-08T22:55:12.835Z,21.53
2024-04-08T22:57:44.416Z,20.80
2024-04-08T23:00:12.414Z,26.17
2024-04-08T23:02:39.931Z,25.77
2024-04-08T23:05:07.975Z,19.00
2024-04-08T23:07:35.722Z,29.20
2024-04-08T23:10:03.956Z,20.13
2024-04-08T23:12:31.172Z,20.07
2024-04-08T23:14:58.244Z,23.40
2024-04-08T23:17:25.412Z,22.87
2024-04-08T23:19:53.380Z,24.23
2024-04-08T23:22:20.420Z,25.23
2024-04-08T23:24:47.737Z,20.13
2024-04-08T23:27:14.775Z,23.07
2024-04-08T23:29:41.838Z,28.60
2024-04-08T23:32:09.820Z,25.30
2024-04-08T23:34:37.072Z,20.53
2024-04-08T23:37:04.068Z,27.07
2024-04-08T23:39:31.117Z,23.47
2024-04-08T23:41:58.123Z,18.37
2024-04-08T23:44:25.048Z,23.30
2024-04-08T23:46:52.091Z,20.60
2024-04-08T23:49:19.192Z,21.13
2024-04-08T23:51:46.164Z,15.53
2024-04-08T23:54:13.112Z,20.27
2024-04-08T23:56:39.971Z,26.97
2024-04-08T23:59:06.834Z,19.60
